Terminal Aerodrome Forecast
Issued by NWS Newport/Morehead City, NC

Home | Current Version | Previous Version | Text Only | Print | Product List | Glossary Off
Versions: 1 2 3 4 5 6 7 8 9 10 11 12 13 14

249
FTUS42 KMHX 211120
TAFEWN
TAF
KEWN 211120Z 2112/2212 22006KT P6SM SCT050
     FM211900 22009G17KT P6SM SCT050
     FM220000 21006KT P6SM SCT050=

USA.gov is the U.S. government's official web portal to all federal, state and local government web resources and services.